createdAt,value
2022-09-28T00:00:16.989Z,1.09
2022-09-28T00:00:48.417Z,0.89
2022-09-28T00:01:19.916Z,0.99
2022-09-28T00:01:51.436Z,0.98
2022-09-28T00:02:22.949Z,1.06
2022-09-28T00:02:54.498Z,0.94
2022-09-28T00:03:26.045Z,1.03
2022-09-28T00:03:57.435Z,1.44
2022-09-28T00:04:28.850Z,1.38
2022-09-28T00:05:00.259Z,1.25
2022-09-28T00:05:31.757Z,1.02
2022-09-28T00:06:03.150Z,1.02
2022-09-28T00:06:34.535Z,0.63
2022-09-28T00:07:05.920Z,0.57
2022-09-28T00:07:37.322Z,0.97
2022-09-28T00:08:08.742Z,1.05
2022-09-28T00:08:40.289Z,1.22
2022-09-28T00:09:11.669Z,0.97
2022-09-28T00:09:43.086Z,0.75
2022-09-28T00:10:14.474Z,0.95
2022-09-28T00:10:45.860Z,1.18
2022-09-28T00:11:17.294Z,1.09
2022-09-28T00:11:48.680Z,1.13
2022-09-28T00:12:20.081Z,0.73
2022-09-28T00:12:51.487Z,0.96
2022-09-28T00:13:22.877Z,1.29
2022-09-28T00:13:54.353Z,0.98
2022-09-28T00:14:25.759Z,0.81
2022-09-28T00:14:57.151Z,0.75
2022-09-28T00:15:28.568Z,1.01
2022-09-28T00:15:59.976Z,0.57
2022-09-28T00:16:31.457Z,0.74
2022-09-28T00:17:02.868Z,1.00
2022-09-28T00:17:34.253Z,0.73
2022-09-28T00:18:05.663Z,0.67
2022-09-28T00:18:37.097Z,0.79
2022-09-28T00:19:08.596Z,0.85
2022-09-28T00:19:39.979Z,0.84
2022-09-28T00:20:11.368Z,1.02
2022-09-28T00:20:42.758Z,0.95
2022-09-28T00:21:14.150Z,0.92
2022-09-28T00:21:45.531Z,0.69
2022-09-28T00:22:16.972Z,0.80
2022-09-28T00:22:48.362Z,1.42
2022-09-28T00:23:19.750Z,1.02
2022-09-28T00:23:51.221Z,1.19
2022-09-28T00:24:27.365Z,0.78
2022-09-28T00:24:59.154Z,0.74
2022-09-28T00:25:30.540Z,1.02
2022-09-28T00:26:01.947Z,0.87
2022-09-28T00:26:33.334Z,0.99
2022-09-28T00:27:04.731Z,1.09
2022-09-28T00:27:36.117Z,1.20
2022-09-28T00:28:07.500Z,0.98
2022-09-28T00:28:38.904Z,1.25
2022-09-28T00:29:10.459Z,0.78
2022-09-28T00:29:41.870Z,0.90
2022-09-28T00:30:13.257Z,0.95
2022-09-28T00:30:44.653Z,1.01
2022-09-28T00:31:16.080Z,1.12
2022-09-28T00:31:47.581Z,0.93
2022-09-28T00:32:19.080Z,0.99
2022-09-28T00:32:50.474Z,1.52
2022-09-28T00:33:21.865Z,0.87
2022-09-28T00:33:53.248Z,1.08
2022-09-28T00:34:24.753Z,0.92
2022-09-28T00:34:56.136Z,0.90
2022-09-28T00:35:27.526Z,0.62
2022-09-28T00:35:58.928Z,0.96
2022-09-28T00:36:30.321Z,1.45
2022-09-28T00:37:01.723Z,1.26
2022-09-28T00:37:33.134Z,0.79
2022-09-28T00:38:04.549Z,0.77
2022-09-28T00:38:35.932Z,0.81
2022-09-28T00:39:07.356Z,0.66
2022-09-28T00:39:38.745Z,0.74
2022-09-28T00:40:10.128Z,1.22
2022-09-28T00:40:41.538Z,1.05
2022-09-28T00:41:13.000Z,0.99
2022-09-28T00:41:44.405Z,1.20
2022-09-28T00:42:15.803Z,1.13
2022-09-28T00:42:47.192Z,0.83
2022-09-28T00:43:18.587Z,0.92
2022-09-28T00:43:49.983Z,1.07
2022-09-28T00:44:21.464Z,1.15
2022-09-28T00:44:52.844Z,0.94
2022-09-28T00:45:24.269Z,1.23
2022-09-28T00:45:55.717Z,0.61
2022-09-28T00:46:27.215Z,0.75
2022-09-28T00:46:58.601Z,1.11
2022-09-28T00:47:29.989Z,0.78
2022-09-28T00:48:01.375Z,0.92
2022-09-28T00:48:32.756Z,0.87
2022-09-28T00:49:04.139Z,0.77
2022-09-28T00:49:35.628Z,0.89
2022-09-28T00:50:07.011Z,1.22
2022-09-28T00:50:38.403Z,0.61
2022-09-28T00:51:09.794Z,0.80
2022-09-28T00:51:41.183Z,0.79
2022-09-28T00:52:12.578Z,0.75
2022-09-28T00:52:44.071Z,0.63
2022-09-28T00:53:15.481Z,0.74
2022-09-28T00:53:46.883Z,0.70
2022-09-28T00:54:18.269Z,0.74
2022-09-28T00:54:49.780Z,0.91
2022-09-28T00:55:21.170Z,0.70
2022-09-28T00:55:52.579Z,0.63
2022-09-28T00:56:23.966Z,0.91
2022-09-28T00:56:55.354Z,0.80
2022-09-28T00:57:26.741Z,0.65
2022-09-28T00:57:58.132Z,1.17
2022-09-28T00:58:29.516Z,0.59
2022-09-28T00:59:00.905Z,0.74
2022-09-28T00:59:32.303Z,0.89
2022-09-28T01:00:03.712Z,0.87
2022-09-28T01:00:35.120Z,0.61
2022-09-28T01:01:06.665Z,0.85
2022-09-28T01:01:38.150Z,0.67
2022-09-28T01:02:09.629Z,0.83
2022-09-28T01:02:41.060Z,0.57
2022-09-28T01:03:12.460Z,0.61
2022-09-28T01:03:43.845Z,0.50
2022-09-28T01:04:15.262Z,0.79
2022-09-28T01:04:46.662Z,0.75
2022-09-28T01:05:18.089Z,1.65
2022-09-28T01:05:49.476Z,0.71
2022-09-28T01:06:20.888Z,0.50
2022-09-28T01:06:52.278Z,0.65
2022-09-28T01:07:23.668Z,0.87
2022-09-28T01:07:55.052Z,1.10
2022-09-28T01:08:26.516Z,0.76
2022-09-28T01:08:57.910Z,0.59
2022-09-28T01:09:29.312Z,0.97
2022-09-28T01:10:00.695Z,0.82
2022-09-28T01:10:32.137Z,1.32
2022-09-28T01:11:03.536Z,1.01
2022-09-28T01:11:34.931Z,0.86
2022-09-28T01:12:06.324Z,0.92
2022-09-28T01:12:37.712Z,1.09
2022-09-28T01:13:09.104Z,0.99
2022-09-28T01:13:40.507Z,0.88
2022-09-28T01:14:11.891Z,0.76
2022-09-28T01:14:43.288Z,0.66
2022-09-28T01:15:14.684Z,1.10
2022-09-28T01:15:46.107Z,0.82
2022-09-28T01:16:17.521Z,0.83
2022-09-28T01:16:49.005Z,0.62
2022-09-28T01:17:20.432Z,0.90
2022-09-28T01:17:51.825Z,0.94
2022-09-28T01:18:23.353Z,0.86
2022-09-28T01:18:54.781Z,0.65
2022-09-28T01:19:26.176Z,0.58
2022-09-28T01:19:57.562Z,1.00
2022-09-28T01:20:28.972Z,0.89
2022-09-28T01:21:00.471Z,0.68
2022-09-28T01:21:31.859Z,0.67
2022-09-28T01:22:03.243Z,0.87
2022-09-28T01:22:34.641Z,0.85
2022-09-28T01:23:06.052Z,0.86
2022-09-28T01:23:37.444Z,0.97
2022-09-28T01:24:08.836Z,0.70
2022-09-28T01:24:40.283Z,0.58
2022-09-28T01:25:11.835Z,0.78
2022-09-28T01:25:43.255Z,0.68
2022-09-28T01:26:14.752Z,1.12
2022-09-28T01:26:46.141Z,0.73
2022-09-28T01:27:17.535Z,0.83
2022-09-28T01:27:48.919Z,0.74
2022-09-28T01:28:20.301Z,0.76
2022-09-28T01:28:51.692Z,0.71
2022-09-28T01:29:23.099Z,0.76
2022-09-28T01:29:54.485Z,0.55
2022-09-28T01:30:25.871Z,0.91
2022-09-28T01:30:57.289Z,0.65
2022-09-28T01:31:28.832Z,0.69
2022-09-28T01:32:00.330Z,1.04
2022-09-28T01:32:31.732Z,0.56
2022-09-28T01:33:03.128Z,0.63
2022-09-28T01:33:34.535Z,0.61
2022-09-28T01:34:05.919Z,1.20
2022-09-28T01:34:37.323Z,0.69
2022-09-28T01:35:08.716Z,1.03
2022-09-28T01:35:40.105Z,0.96
2022-09-28T01:36:11.523Z,0.81
2022-09-28T01:36:42.956Z,0.75
2022-09-28T01:37:14.349Z,0.93
2022-09-28T01:37:45.744Z,0.55
2022-09-28T01:38:17.149Z,0.65
2022-09-28T01:38:48.542Z,0.55
2022-09-28T01:39:19.963Z,0.56
2022-09-28T01:39:51.349Z,0.58
2022-09-28T01:40:22.821Z,0.76
2022-09-28T01:40:54.484Z,0.73
2022-09-28T01:41:25.912Z,0.87
2022-09-28T01:41:57.326Z,1.25
2022-09-28T01:42:28.787Z,0.62
2022-09-28T01:43:00.193Z,0.47
2022-09-28T01:43:31.603Z,0.55
2022-09-28T01:44:03.052Z,0.59
2022-09-28T01:44:34.501Z,0.81
2022-09-28T01:45:05.915Z,0.76
2022-09-28T01:45:37.335Z,0.61
2022-09-28T01:46:08.882Z,0.75
2022-09-28T01:46:40.313Z,0.59
2022-09-28T01:47:11.730Z,0.83
2022-09-28T01:47:43.117Z,1.09
2022-09-28T01:48:14.530Z,0.74
2022-09-28T01:48:45.926Z,0.59
2022-09-28T01:49:17.453Z,0.80
2022-09-28T01:49:48.888Z,0.59
2022-09-28T01:50:20.302Z,0.85
2022-09-28T01:50:51.687Z,0.70
2022-09-28T01:51:23.194Z,0.68
2022-09-28T01:51:54.613Z,0.68
2022-09-28T01:52:26.013Z,0.44
2022-09-28T01:52:57.420Z,0.40
2022-09-28T01:53:28.815Z,0.66
2022-09-28T01:54:00.205Z,0.65
2022-09-28T01:54:31.617Z,0.66
2022-09-28T01:55:03.031Z,0.80
2022-09-28T01:55:34.444Z,0.62
2022-09-28T01:56:05.919Z,1.16
2022-09-28T01:56:37.299Z,0.73
2022-09-28T01:57:08.705Z,0.81
2022-09-28T01:57:40.101Z,0.68
2022-09-28T01:58:11.483Z,0.60
2022-09-28T01:58:42.864Z,0.52
2022-09-28T01:59:14.406Z,0.46
2022-09-28T01:59:45.888Z,0.77
2022-09-28T02:00:17.273Z,0.64
2022-09-28T02:00:48.708Z,0.77
2022-09-28T02:01:20.267Z,0.56
2022-09-28T02:01:51.737Z,0.70
2022-09-28T02:02:23.175Z,0.84
2022-09-28T02:02:54.633Z,0.74
2022-09-28T02:03:26.031Z,0.66
2022-09-28T02:03:57.413Z,0.53
2022-09-28T02:04:28.831Z,0.77
2022-09-28T02:05:00.220Z,0.83
2022-09-28T02:05:31.625Z,0.67
2022-09-28T02:06:03.012Z,0.64
2022-09-28T02:06:34.445Z,0.81
2022-09-28T02:07:05.851Z,0.52
2022-09-28T02:07:37.241Z,0.64
2022-09-28T02:08:08.628Z,0.64
2022-09-28T02:08:40.035Z,0.59
2022-09-28T02:09:11.427Z,0.63
2022-09-28T02:09:42.819Z,0.46
2022-09-28T02:10:14.200Z,0.75
2022-09-28T02:10:45.596Z,0.36
2022-09-28T02:11:17.012Z,0.59
2022-09-28T02:11:48.502Z,0.72
2022-09-28T02:12:19.897Z,0.77
2022-09-28T02:12:51.303Z,0.76
2022-09-28T02:13:22.727Z,0.56
2022-09-28T02:13:54.123Z,0.61
2022-09-28T02:14:25.519Z,0.87
2022-09-28T02:14:56.907Z,0.70
2022-09-28T02:15:28.305Z,0.55
2022-09-28T02:15:59.761Z,0.59
2022-09-28T02:16:31.332Z,0.58
2022-09-28T02:17:02.811Z,0.40
2022-09-28T02:17:34.193Z,0.49
2022-09-28T02:18:05.584Z,0.81
2022-09-28T02:18:37.024Z,0.66
2022-09-28T02:19:08.420Z,0.90
2022-09-28T02:19:39.852Z,0.55
2022-09-28T02:20:11.248Z,0.65
2022-09-28T02:20:42.631Z,0.61
2022-09-28T02:21:14.045Z,0.80
2022-09-28T02:21:45.511Z,0.73
2022-09-28T02:22:16.896Z,0.39
2022-09-28T02:22:48.286Z,0.76
2022-09-28T02:23:19.698Z,0.85
2022-09-28T02:23:51.093Z,0.65
2022-09-28T02:24:22.481Z,0.58
2022-09-28T02:24:53.868Z,0.46
2022-09-28T02:25:25.265Z,0.85
2022-09-28T02:25:56.666Z,0.57
2022-09-28T02:26:28.053Z,0.50
2022-09-28T02:26:59.480Z,0.66
2022-09-28T02:27:30.910Z,0.52
2022-09-28T02:28:02.296Z,0.44
2022-09-28T02:28:33.676Z,0.99
2022-09-28T02:29:05.069Z,0.79
2022-09-28T02:29:36.452Z,0.61
2022-09-28T02:30:07.860Z,0.49
2022-09-28T02:30:39.267Z,0.73
2022-09-28T02:31:10.736Z,0.67
2022-09-28T02:31:42.244Z,0.33
2022-09-28T02:32:13.816Z,0.50
2022-09-28T02:32:45.200Z,0.65
2022-09-28T02:33:16.585Z,0.56
2022-09-28T02:33:48.034Z,0.50
2022-09-28T02:34:19.420Z,0.59
2022-09-28T02:34:50.809Z,0.49
2022-09-28T02:35:22.190Z,0.67
2022-09-28T02:35:53.578Z,0.91
2022-09-28T02:36:24.965Z,0.46
2022-09-28T02:36:56.366Z,0.46
2022-09-28T02:37:27.905Z,0.48
2022-09-28T02:37:59.304Z,0.47
2022-09-28T02:38:30.704Z,0.79
2022-09-28T02:39:02.102Z,0.79
2022-09-28T02:39:33.488Z,0.87
2022-09-28T02:40:04.888Z,0.66
2022-09-28T02:40:36.326Z,0.92
2022-09-28T02:41:07.746Z,0.51
2022-09-28T02:41:39.136Z,0.68
2022-09-28T02:42:10.523Z,0.57
2022-09-28T02:42:42.043Z,0.89
2022-09-28T02:43:13.451Z,0.85
2022-09-28T02:43:44.839Z,0.74
2022-09-28T02:44:16.220Z,0.65
2022-09-28T02:44:47.608Z,0.59
2022-09-28T02:45:19.043Z,0.46
2022-09-28T02:45:50.502Z,0.76
2022-09-28T02:46:21.924Z,0.68
2022-09-28T02:46:53.333Z,0.64
2022-09-28T02:47:24.724Z,0.51
2022-09-28T02:47:56.196Z,0.37
2022-09-28T02:48:43.078Z,0.78
2022-09-28T02:49:21.881Z,0.58
2022-09-28T02:49:53.728Z,0.43
2022-09-28T02:50:25.120Z,0.57
2022-09-28T02:50:56.526Z,0.58
2022-09-28T02:51:27.916Z,0.49
2022-09-28T02:51:59.316Z,0.38
2022-09-28T02:52:30.777Z,0.59
2022-09-28T02:53:02.268Z,0.41
2022-09-28T02:53:33.664Z,0.39
2022-09-28T02:54:05.047Z,0.29
2022-09-28T02:54:36.441Z,0.41
2022-09-28T02:55:07.842Z,0.45
2022-09-28T02:55:39.241Z,0.34
2022-09-28T02:56:10.633Z,0.35
2022-09-28T02:56:42.029Z,0.61
2022-09-28T02:57:13.412Z,1.03
2022-09-28T02:57:44.840Z,0.66
2022-09-28T02:58:16.336Z,0.39
2022-09-28T02:58:47.719Z,0.45
2022-09-28T02:59:19.105Z,0.68
2022-09-28T02:59:50.503Z,0.28
2022-09-28T03:00:21.895Z,0.54
2022-09-28T03:00:53.343Z,0.62
2022-09-28T03:01:24.845Z,0.50
2022-09-28T03:01:56.387Z,0.69
2022-09-28T03:02:27.857Z,0.43
2022-09-28T03:02:59.287Z,0.52
2022-09-28T03:03:30.701Z,0.40
2022-09-28T03:04:02.089Z,0.82
2022-09-28T03:04:33.481Z,0.64
2022-09-28T03:05:04.897Z,0.58
2022-09-28T03:05:36.297Z,0.68
2022-09-28T03:06:07.732Z,0.54
2022-09-28T03:06:39.133Z,0.54
2022-09-28T03:07:10.540Z,0.47
2022-09-28T03:07:41.997Z,0.52
2022-09-28T03:08:13.404Z,0.43
2022-09-28T03:08:44.819Z,0.67
2022-09-28T03:09:16.306Z,0.38
2022-09-28T03:09:47.773Z,0.44
2022-09-28T03:10:19.189Z,0.47
2022-09-28T03:10:50.605Z,0.53
2022-09-28T03:11:22.051Z,0.75
2022-09-28T03:11:53.441Z,0.37
2022-09-28T03:12:24.851Z,0.60
2022-09-28T03:12:56.244Z,0.36
2022-09-28T03:13:27.651Z,0.64
2022-09-28T03:13:59.129Z,0.56
2022-09-28T03:14:30.536Z,0.45
2022-09-28T03:15:01.940Z,0.54
2022-09-28T03:15:33.320Z,0.67
2022-09-28T03:16:04.804Z,0.53
2022-09-28T03:16:36.360Z,0.30
2022-09-28T03:17:07.788Z,0.73
2022-09-28T03:17:39.188Z,0.53
2022-09-28T03:18:10.615Z,0.44
2022-09-28T03:18:42.001Z,0.60
2022-09-28T03:19:13.433Z,0.45
2022-09-28T03:19:44.870Z,0.42
2022-09-28T03:20:16.259Z,0.44
2022-09-28T03:20:47.649Z,0.61
2022-09-28T03:21:19.039Z,0.60
2022-09-28T03:21:50.460Z,0.63
2022-09-28T03:22:21.844Z,0.52
2022-09-28T03:23:19.617Z,0.47
2022-09-28T03:23:44.630Z,0.45
2022-09-28T03:24:16.017Z,0.43
2022-09-28T03:24:47.405Z,0.64
2022-09-28T03:25:18.788Z,0.65
2022-09-28T03:25:50.174Z,0.51
2022-09-28T03:26:21.555Z,0.40
2022-09-28T03:26:52.935Z,0.53
2022-09-28T03:27:24.352Z,0.46
2022-09-28T03:27:55.761Z,0.35
2022-09-28T03:28:27.271Z,0.26
2022-09-28T03:28:58.675Z,0.50
2022-09-28T03:29:30.066Z,0.65
2022-09-28T03:30:01.449Z,0.37
2022-09-28T03:30:32.837Z,0.52
2022-09-28T03:31:04.306Z,0.46
2022-09-28T03:31:35.813Z,0.87
2022-09-28T03:32:07.241Z,0.51
2022-09-28T03:32:38.635Z,0.45
2022-09-28T03:33:10.047Z,0.49
2022-09-28T03:33:41.461Z,0.45
2022-09-28T03:34:12.848Z,0.40
2022-09-28T03:34:44.232Z,0.49
2022-09-28T03:35:15.612Z,0.39
2022-09-28T03:35:47.023Z,0.57
2022-09-28T03:36:18.425Z,0.81
2022-09-28T03:36:49.816Z,0.54
2022-09-28T03:37:21.254Z,0.53
2022-09-28T03:37:52.665Z,0.75
2022-09-28T03:38:24.166Z,0.41
2022-09-28T03:38:55.720Z,0.38
2022-09-28T03:39:27.129Z,0.51
2022-09-28T03:39:58.507Z,0.61
2022-09-28T03:40:29.990Z,0.65
2022-09-28T03:41:01.475Z,0.68
2022-09-28T03:41:32.993Z,0.53
2022-09-28T03:42:04.377Z,0.39
2022-09-28T03:42:35.764Z,0.72
2022-09-28T03:43:07.143Z,0.65
2022-09-28T03:43:38.838Z,0.38
2022-09-28T03:44:10.225Z,0.66
2022-09-28T03:44:41.614Z,0.65
2022-09-28T03:45:13.021Z,0.45
2022-09-28T03:45:44.469Z,0.36
2022-09-28T03:46:15.916Z,0.49
2022-09-28T03:46:47.340Z,0.54
2022-09-28T03:47:18.755Z,0.60
2022-09-28T03:47:50.184Z,0.40
2022-09-28T03:48:25.020Z,0.34
2022-09-28T03:48:58.135Z,0.29
2022-09-28T03:49:29.537Z,0.38
2022-09-28T03:50:00.935Z,0.22
2022-09-28T03:50:32.315Z,0.45
2022-09-28T03:51:03.704Z,0.38
2022-09-28T03:51:35.097Z,0.31
2022-09-28T03:52:06.509Z,0.55
2022-09-28T03:52:37.921Z,0.46
2022-09-28T03:53:09.314Z,0.46
2022-09-28T03:53:40.718Z,0.61
2022-09-28T03:54:12.129Z,0.57
2022-09-28T03:54:48.300Z,0.75
2022-09-28T03:55:20.545Z,0.57
2022-09-28T03:55:51.995Z,0.48
2022-09-28T03:56:23.383Z,0.51
2022-09-28T03:56:54.774Z,0.87
2022-09-28T03:57:26.165Z,0.33
2022-09-28T03:57:57.554Z,0.59
2022-09-28T03:58:28.943Z,0.47
2022-09-28T03:59:00.429Z,0.58
2022-09-28T03:59:31.821Z,0.63
2022-09-28T04:00:03.212Z,0.66
2022-09-28T04:00:34.652Z,0.50
2022-09-28T04:01:06.153Z,0.47
2022-09-28T04:01:37.740Z,0.59
2022-09-28T04:02:09.247Z,0.54
2022-09-28T04:02:40.681Z,0.59
2022-09-28T04:03:12.079Z,0.35
2022-09-28T04:03:43.493Z,0.51
2022-09-28T04:04:15.026Z,0.46
2022-09-28T04:04:46.425Z,0.53
2022-09-28T04:05:17.808Z,0.87
2022-09-28T04:05:49.191Z,0.53
2022-09-28T04:06:20.587Z,0.46
2022-09-28T04:06:51.977Z,0.45
2022-09-28T04:07:24.569Z,0.20
2022-09-28T04:07:57.395Z,0.33
2022-09-28T04:08:28.795Z,0.35
2022-09-28T04:09:00.203Z,0.25
2022-09-28T04:09:31.623Z,0.48
2022-09-28T04:10:03.020Z,0.29
2022-09-28T04:10:34.409Z,0.33
2022-09-28T04:11:05.796Z,0.46
2022-09-28T04:11:53.172Z,0.65
2022-09-28T04:12:28.663Z,0.41
2022-09-28T04:13:00.054Z,0.52
2022-09-28T04:13:31.458Z,0.58
2022-09-28T04:14:02.847Z,0.27
2022-09-28T04:14:34.335Z,0.40
2022-09-28T04:15:05.742Z,0.37
2022-09-28T04:15:37.134Z,0.75
2022-09-28T04:16:08.570Z,0.45
2022-09-28T04:16:40.075Z,0.54
2022-09-28T04:17:11.505Z,0.58
2022-09-28T04:17:42.886Z,0.41
2022-09-28T04:18:14.299Z,0.71
2022-09-28T04:18:45.691Z,0.80
2022-09-28T04:19:17.189Z,0.33
2022-09-28T04:19:48.700Z,0.21
2022-09-28T04:20:20.097Z,0.74
2022-09-28T04:20:51.485Z,0.72
2022-09-28T04:21:22.877Z,0.53
2022-09-28T04:21:54.273Z,0.28
2022-09-28T04:22:25.687Z,0.36
2022-09-28T04:22:57.081Z,0.82
2022-09-28T04:23:28.473Z,0.37
2022-09-28T04:23:59.868Z,0.34
2022-09-28T04:24:31.277Z,0.32
2022-09-28T04:25:02.757Z,0.63
2022-09-28T04:25:34.149Z,0.42
2022-09-28T04:26:05.546Z,0.66
2022-09-28T04:26:36.933Z,0.44
2022-09-28T04:27:08.333Z,0.35
2022-09-28T04:27:39.795Z,0.60
2022-09-28T04:28:11.181Z,0.44
2022-09-28T04:28:42.585Z,0.42
2022-09-28T04:29:13.976Z,0.43
2022-09-28T04:29:45.528Z,0.39
2022-09-28T04:30:17.020Z,0.86
2022-09-28T04:30:48.411Z,0.34
2022-09-28T04:31:19.832Z,0.18
2022-09-28T04:31:51.346Z,0.49
2022-09-28T04:32:22.762Z,0.50
2022-09-28T04:32:54.149Z,0.47
2022-09-28T04:33:25.532Z,0.43
2022-09-28T04:33:56.911Z,0.41
2022-09-28T04:34:31.891Z,0.46
2022-09-28T04:35:06.071Z,0.42
2022-09-28T04:35:37.461Z,0.64
2022-09-28T04:36:08.852Z,0.54
2022-09-28T04:36:40.260Z,0.45
2022-09-28T04:37:11.668Z,0.40
2022-09-28T04:37:43.054Z,0.46
2022-09-28T04:38:14.439Z,0.29
2022-09-28T04:38:53.170Z,0.30
2022-09-28T04:39:25.076Z,0.48
2022-09-28T04:39:56.470Z,0.37
2022-09-28T04:40:27.946Z,0.38
2022-09-28T04:40:59.397Z,0.52
2022-09-28T04:41:30.822Z,0.56
2022-09-28T04:42:02.210Z,0.33
2022-09-28T04:42:33.660Z,0.37
2022-09-28T04:43:05.048Z,0.78
2022-09-28T04:43:36.437Z,0.58
2022-09-28T04:44:07.840Z,0.49
2022-09-28T04:44:39.257Z,0.56
2022-09-28T04:45:10.648Z,0.33
2022-09-28T04:45:42.148Z,0.54
2022-09-28T04:46:13.620Z,0.38
2022-09-28T04:46:45.044Z,0.56
2022-09-28T04:47:16.450Z,0.48
2022-09-28T04:47:47.847Z,0.40
2022-09-28T04:48:19.252Z,0.31
2022-09-28T04:48:50.640Z,0.64
2022-09-28T04:49:22.037Z,0.60
2022-09-28T04:49:53.425Z,0.31
2022-09-28T04:50:24.918Z,0.47
2022-09-28T04:50:56.446Z,0.35
2022-09-28T04:51:27.831Z,0.46
2022-09-28T04:51:59.225Z,0.35
2022-09-28T04:52:30.617Z,0.45
2022-09-28T04:53:02.006Z,0.38
2022-09-28T04:53:33.410Z,0.49
2022-09-28T04:54:04.798Z,0.26
2022-09-28T04:54:36.240Z,0.39
2022-09-28T04:55:07.642Z,0.45
2022-09-28T04:55:39.033Z,0.36
2022-09-28T04:56:10.517Z,0.30
2022-09-28T04:56:41.905Z,0.42
2022-09-28T04:57:13.301Z,0.39
2022-09-28T04:57:44.692Z,0.36
2022-09-28T04:58:16.096Z,0.62
2022-09-28T04:58:52.456Z,0.38
2022-09-28T04:59:24.220Z,0.43
2022-09-28T04:59:55.609Z,0.33
2022-09-28T05:00:27.410Z,0.32
2022-09-28T05:00:59.385Z,0.32
2022-09-28T05:01:31.445Z,0.37
2022-09-28T05:02:03.419Z,0.26
2022-09-28T05:02:34.983Z,0.24
2022-09-28T05:03:06.430Z,0.29
2022-09-28T05:03:37.845Z,0.41
2022-09-28T05:04:09.237Z,0.31
2022-09-28T05:04:40.635Z,0.36
2022-09-28T05:05:12.028Z,0.35
2022-09-28T05:05:43.440Z,0.28
2022-09-28T05:06:14.828Z,0.29
2022-09-28T05:06:46.312Z,0.18
2022-09-28T05:07:17.700Z,0.37
2022-09-28T05:07:49.095Z,0.71
2022-09-28T05:08:20.483Z,0.57
2022-09-28T05:08:51.869Z,0.57
2022-09-28T05:09:23.255Z,0.30
2022-09-28T05:09:54.641Z,0.55
2022-09-28T05:10:26.042Z,0.55
2022-09-28T05:10:57.453Z,0.26
2022-09-28T05:11:28.860Z,0.65
2022-09-28T05:12:00.269Z,0.46
2022-09-28T05:12:31.661Z,0.33
2022-09-28T05:13:03.068Z,0.25
2022-09-28T05:13:34.464Z,0.51
2022-09-28T05:14:05.882Z,0.52
2022-09-28T05:14:37.293Z,0.38
2022-09-28T05:15:08.681Z,0.26
2022-09-28T05:15:40.081Z,0.32
2022-09-28T05:16:11.499Z,0.30
2022-09-28T05:16:42.946Z,0.48
2022-09-28T05:17:14.432Z,0.44
2022-09-28T05:17:45.816Z,0.60
2022-09-28T05:18:17.214Z,0.37
2022-09-28T05:18:48.606Z,0.41
2022-09-28T05:19:19.997Z,0.44
2022-09-28T05:19:51.389Z,0.24
2022-09-28T05:20:22.778Z,0.38
2022-09-28T05:20:54.168Z,0.44
2022-09-28T05:21:25.565Z,0.31
2022-09-28T05:21:56.961Z,0.33
2022-09-28T05:22:28.385Z,0.54
2022-09-28T05:22:59.782Z,0.47
2022-09-28T05:23:31.171Z,0.64
2022-09-28T05:24:02.576Z,0.36
2022-09-28T05:24:33.997Z,0.36
2022-09-28T05:25:05.401Z,0.32
2022-09-28T05:25:36.788Z,0.37
2022-09-28T05:26:08.169Z,0.25
2022-09-28T05:26:39.571Z,0.51
2022-09-28T05:27:10.956Z,0.35
2022-09-28T05:27:42.440Z,0.46
2022-09-28T05:28:13.856Z,0.43
2022-09-28T05:28:45.276Z,0.33
2022-09-28T05:29:16.721Z,0.64
2022-09-28T05:29:48.234Z,0.49
2022-09-28T05:30:19.635Z,0.40
2022-09-28T05:30:51.025Z,0.36
2022-09-28T05:31:22.483Z,0.47
2022-09-28T05:31:53.981Z,0.25
2022-09-28T05:32:25.424Z,0.31
2022-09-28T05:32:56.913Z,0.42
2022-09-28T05:33:28.728Z,0.31
2022-09-28T05:34:00.484Z,0.75
2022-09-28T05:34:32.367Z,0.58
2022-09-28T05:35:04.211Z,0.38
2022-09-28T05:35:35.668Z,0.55
2022-09-28T05:36:07.051Z,0.38
2022-09-28T05:36:38.441Z,0.40
2022-09-28T05:37:09.858Z,0.36
2022-09-28T05:37:41.246Z,0.31
2022-09-28T05:38:12.729Z,0.34
2022-09-28T05:38:44.154Z,0.43
2022-09-28T05:39:15.678Z,0.42
2022-09-28T05:39:47.128Z,0.45
2022-09-28T05:40:18.603Z,0.32
2022-09-28T05:40:50.207Z,0.33
2022-09-28T05:41:21.692Z,0.40
2022-09-28T05:41:53.088Z,0.46
2022-09-28T05:42:24.468Z,0.36
2022-09-28T05:42:55.856Z,0.22
2022-09-28T05:43:27.393Z,0.40
2022-09-28T05:43:58.801Z,0.46
2022-09-28T05:44:30.197Z,0.42
2022-09-28T05:45:01.599Z,0.41
2022-09-28T05:45:33.026Z,0.70
2022-09-28T05:46:04.501Z,0.43
2022-09-28T05:46:35.979Z,0.35
2022-09-28T05:47:07.365Z,0.26
2022-09-28T05:47:38.754Z,0.43
2022-09-28T05:48:10.145Z,0.36
2022-09-28T05:48:41.703Z,0.26
2022-09-28T05:49:13.120Z,0.54
2022-09-28T05:49:44.506Z,0.46
2022-09-28T05:50:15.898Z,0.42
2022-09-28T05:50:47.285Z,0.39
2022-09-28T05:51:18.668Z,0.37
2022-09-28T05:51:50.055Z,0.47
2022-09-28T05:52:21.461Z,0.34
2022-09-28T05:52:52.858Z,0.36
2022-09-28T05:53:24.253Z,0.35
2022-09-28T05:53:55.677Z,0.48
2022-09-28T05:54:27.072Z,0.38
2022-09-28T05:54:58.461Z,0.70
2022-09-28T05:55:29.949Z,0.45
2022-09-28T05:56:01.388Z,0.51
2022-09-28T05:56:32.778Z,0.29
2022-09-28T05:57:04.194Z,0.47
2022-09-28T05:57:35.583Z,0.41
2022-09-28T05:58:06.971Z,0.44
2022-09-28T05:58:38.355Z,0.31
2022-09-28T05:59:09.787Z,0.24
2022-09-28T05:59:41.185Z,0.34
2022-09-28T06:00:12.572Z,0.24
2022-09-28T06:00:43.984Z,0.23
2022-09-28T06:01:15.462Z,0.49
2022-09-28T06:01:46.936Z,0.34
2022-09-28T06:02:18.395Z,0.52
2022-09-28T06:02:49.879Z,0.47
2022-09-28T06:03:21.289Z,0.51
2022-09-28T06:03:52.692Z,0.64
2022-09-28T06:04:24.142Z,0.44
2022-09-28T06:04:55.528Z,0.48
2022-09-28T06:05:26.926Z,0.31
2022-09-28T06:05:58.337Z,0.56
2022-09-28T06:06:29.725Z,0.50
2022-09-28T06:07:01.112Z,0.47
2022-09-28T06:07:32.501Z,0.44
2022-09-28T06:08:04.008Z,0.37
2022-09-28T06:08:35.392Z,0.25
2022-09-28T06:09:06.804Z,0.38
2022-09-28T06:09:38.300Z,0.31
2022-09-28T06:10:09.707Z,0.45
2022-09-28T06:10:41.115Z,0.27
2022-09-28T06:11:12.541Z,0.12
2022-09-28T06:11:44.100Z,0.59
2022-09-28T06:12:15.520Z,0.57
2022-09-28T06:12:46.927Z,0.43
2022-09-28T06:13:18.319Z,0.50
2022-09-28T06:13:49.885Z,0.39
2022-09-28T06:14:21.294Z,0.44
2022-09-28T06:14:53.624Z,0.36
2022-09-28T06:15:25.207Z,0.44
2022-09-28T06:15:56.607Z,0.61
2022-09-28T06:16:28.193Z,0.45
2022-09-28T06:17:01.455Z,0.59
2022-09-28T06:17:32.941Z,0.49
2022-09-28T06:18:04.368Z,0.34
2022-09-28T06:18:41.498Z,0.49
2022-09-28T06:19:12.888Z,0.27
2022-09-28T06:19:44.285Z,0.43
2022-09-28T06:20:15.725Z,0.34
2022-09-28T06:20:47.138Z,0.59
2022-09-28T06:21:18.526Z,0.45
2022-09-28T06:21:50.079Z,0.41
2022-09-28T06:22:21.751Z,0.46
2022-09-28T06:22:58.436Z,0.66
2022-09-28T06:23:30.135Z,0.47
2022-09-28T06:24:01.799Z,0.69
2022-09-28T06:24:33.476Z,0.53
2022-09-28T06:25:05.180Z,0.43
2022-09-28T06:25:37.094Z,0.59
2022-09-28T06:26:08.640Z,0.51
2022-09-28T06:26:40.280Z,0.58
2022-09-28T06:27:11.724Z,0.44
2022-09-28T06:27:43.136Z,0.70
2022-09-28T06:28:14.534Z,0.45
2022-09-28T06:28:45.939Z,0.53
2022-09-28T06:29:19.598Z,0.32
2022-09-28T06:29:51.688Z,0.40
2022-09-28T06:30:23.475Z,0.87
2022-09-28T06:30:55.359Z,0.71
2022-09-28T06:31:27.097Z,0.77
2022-09-28T06:31:59.091Z,0.44
2022-09-28T06:32:30.628Z,1.21
2022-09-28T06:33:02.895Z,0.63
2022-09-28T06:33:34.611Z,0.57
2022-09-28T06:34:06.191Z,0.62
2022-09-28T06:34:38.078Z,0.31
2022-09-28T06:35:09.830Z,0.46
2022-09-28T06:35:41.477Z,0.63
2022-09-28T06:36:12.925Z,0.47
2022-09-28T06:36:44.416Z,0.74
2022-09-28T06:37:15.846Z,0.40
2022-09-28T06:37:47.397Z,0.35
2022-09-28T06:38:19.861Z,0.51
2022-09-28T06:38:51.446Z,0.34
2022-09-28T06:39:22.869Z,0.61
2022-09-28T06:39:54.279Z,0.48
2022-09-28T06:40:25.747Z,0.48
2022-09-28T06:40:57.512Z,0.49
2022-09-28T06:41:29.122Z,0.43
2022-09-28T06:42:00.537Z,0.61
2022-09-28T06:42:32.211Z,0.41
2022-09-28T06:43:03.804Z,0.29
2022-09-28T06:43:35.340Z,0.40
2022-09-28T06:44:07.174Z,0.51
2022-09-28T06:44:38.743Z,0.30
2022-09-28T06:45:14.476Z,0.39
2022-09-28T06:45:46.033Z,0.36
2022-09-28T06:46:17.525Z,0.44
2022-09-28T06:46:49.066Z,0.42
2022-09-28T06:47:20.585Z,0.50
2022-09-28T06:47:52.613Z,0.42
2022-09-28T06:48:24.206Z,0.59
2022-09-28T06:48:55.711Z,0.36
2022-09-28T06:49:27.246Z,0.40
2022-09-28T06:49:58.698Z,0.75
2022-09-28T06:50:30.225Z,0.46
2022-09-28T06:51:01.695Z,0.41
2022-09-28T06:51:33.088Z,0.42
2022-09-28T06:52:05.317Z,0.40
2022-09-28T06:52:36.854Z,0.40
2022-09-28T06:53:08.295Z,0.29
2022-09-28T06:53:39.713Z,0.38
2022-09-28T06:54:11.252Z,0.34
2022-09-28T06:54:42.760Z,0.45
2022-09-28T06:55:14.164Z,0.63
2022-09-28T06:55:45.551Z,0.43
2022-09-28T06:56:17.121Z,0.43
2022-09-28T06:56:48.506Z,0.45
2022-09-28T06:57:19.892Z,0.39
2022-09-28T06:57:51.280Z,0.46
2022-09-28T06:58:22.673Z,0.68
2022-09-28T06:58:54.065Z,0.52
2022-09-28T06:59:25.457Z,0.44
2022-09-28T06:59:56.857Z,0.23
2022-09-28T07:00:28.252Z,0.58